Time;durP1;ratioP1;P1;durP2;ratioP2;P2;SDS_P1;SDS_P2;PMS_P1;PMS_P2;Temp;Humidity;BMP_temperature;BMP_pressure;BME280_temperature;BME280_humidity;BME280_pressure;Samples;Min_cycle;Max_cycle;Signal;HPM_P1;HPM_P2
2022/04/15 00:00:00;;;;;;;;;;;10.70;99.90;;;;;;5131892;27;19934;-78
2022/04/15 00:02:27;;;;;;;;;;;10.70;99.90;;;;;;5131695;28;19924;-78
2022/04/15 00:04:55;;;;;;;;;;;10.70;99.90;;;;;;5131321;28;19928;-77
2022/04/15 00:07:21;;;;;;;;;;;10.60;99.90;;;;;;5131698;28;19931;-77
2022/04/15 00:09:48;;;;;;;;;;;10.60;99.90;;;;;;5131693;28;19930;-78
2022/04/15 00:12:18;;;;;;;;;;;10.60;99.90;;;;;;5131480;28;19923;-78
2022/04/15 00:14:44;;;;;;;;;;;10.60;99.90;;;;;;5131318;28;19930;-77
2022/04/15 00:17:13;;;;;;;;;;;10.60;99.90;;;;;;5131826;28;19930;-77
2022/04/15 00:19:39;;;;;;;;;;;10.50;99.90;;;;;;5131254;28;19934;-78
2022/04/15 00:22:06;;;;;;;;;;;10.40;99.90;;;;;;5131320;27;19924;-78
2022/04/15 00:24:33;;;;;;;;;;;10.30;99.90;;;;;;5136010;27;19932;-78
2022/04/15 00:27:00;;;;;;;;;;;10.10;99.90;;;;;;5136042;27;19927;-77
2022/04/15 00:29:28;;;;;;;;;;;9.90;99.90;;;;;;5126983;27;19923;-77
2022/04/15 00:31:55;;;;;;;;;;;9.90;99.90;;;;;;5122974;27;19924;-77
2022/04/15 00:34:23;;;;;;;;;;;9.80;99.90;;;;;;5114700;28;19924;-77
2022/04/15 00:36:50;;;;;;;;;;;9.70;99.90;;;;;;5115096;28;20413;-78
2022/04/15 00:39:16;;;;;;;;;;;9.60;99.90;;;;;;5114859;28;19924;-77
2022/04/15 00:41:44;;;;;;;;;;;9.50;99.90;;;;;;5114827;28;19924;-77
2022/04/15 00:44:10;;;;;;;;;;;9.40;99.90;;;;;;5110167;28;20018;-77
2022/04/15 00:46:37;;;;;;;;;;;9.30;99.90;;;;;;5094266;28;19925;-78
2022/04/15 00:49:04;;;;;;;;;;;9.20;99.90;;;;;;5093917;28;20375;-77
2022/04/15 00:51:33;;;;;;;;;;;9.10;99.90;;;;;;5094392;28;19928;-77
2022/04/15 00:53:59;;;;;;;;;;;9.10;99.90;;;;;;5110963;28;19935;-77
2022/04/15 00:56:29;;;;;;;;;;;9.10;99.90;;;;;;5094091;28;19977;-78
2022/04/15 00:58:58;;;;;;;;;;;9.00;99.90;;;;;;5093826;28;19924;-77
2022/04/15 01:01:24;;;;;;;;;;;9.00;99.90;;;;;;5093734;28;19924;-77
2022/04/15 01:03:51;;;;;;;;;;;9.00;99.90;;;;;;5093917;28;20416;-77
2022/04/15 01:06:18;;;;;;;;;;;9.00;99.90;;;;;;5094144;28;19931;-76
2022/04/15 01:08:48;;;;;;;;;;;9.00;99.90;;;;;;5093868;28;19924;-76
2022/04/15 01:11:18;;;;;;;;;;;9.00;99.90;;;;;;5110999;28;19928;-77
2022/04/15 01:13:46;;;;;;;;;;;8.90;99.90;;;;;;5093072;28;19924;-77
2022/04/15 01:16:13;;;;;;;;;;;8.90;99.90;;;;;;5093886;28;19928;-78
2022/04/15 01:18:39;;;;;;;;;;;8.90;99.90;;;;;;5093841;28;19928;-78
2022/04/15 01:21:06;;;;;;;;;;;8.80;99.90;;;;;;5093640;28;19924;-76
2022/04/15 01:23:35;;;;;;;;;;;8.80;99.90;;;;;;5093169;28;19973;-76
2022/04/15 01:26:01;;;;;;;;;;;8.80;99.90;;;;;;5093378;28;19924;-76
2022/04/15 01:28:28;;;;;;;;;;;8.70;99.90;;;;;;5093722;28;19928;-76
2022/04/15 01:30:55;;;;;;;;;;;8.70;99.90;;;;;;5093110;28;19924;-76
2022/04/15 01:33:22;;;;;;;;;;;8.70;99.90;;;;;;5092683;28;20389;-77
2022/04/15 01:35:49;;;;;;;;;;;8.70;99.90;;;;;;5110442;28;20264;-77
2022/04/15 01:38:17;;;;;;;;;;;8.70;99.90;;;;;;5093161;28;19931;-77
2022/04/15 01:41:14;;;;;;;;;;;8.70;99.90;;;;;;5092864;28;19924;-77
2022/04/15 01:43:42;;;;;;;;;;;8.70;99.90;;;;;;5109740;28;19931;-77
2022/04/15 01:46:09;;;;;;;;;;;8.70;99.90;;;;;;5093040;28;19931;-76
2022/04/15 01:48:36;;;;;;;;;;;8.70;99.90;;;;;;5092876;28;19932;-76
2022/04/15 01:51:03;;;;;;;;;;;8.70;99.90;;;;;;5092804;28;19924;-76
2022/04/15 01:53:30;;;;;;;;;;;8.80;99.90;;;;;;5092752;28;19948;-76
2022/04/15 01:55:56;;;;;;;;;;;8.80;99.90;;;;;;5092849;28;19924;-77
2022/04/15 01:58:23;;;;;;;;;;;8.80;99.90;;;;;;5092855;28;19929;-76
2022/04/15 02:00:51;;;;;;;;;;;8.80;99.90;;;;;;5092771;28;20353;-77
2022/04/15 02:03:18;;;;;;;;;;;8.80;99.90;;;;;;5092594;28;19924;-77
2022/04/15 02:05:45;;;;;;;;;;;8.90;99.90;;;;;;5092828;28;19928;-77
2022/04/15 02:08:12;;;;;;;;;;;8.90;99.90;;;;;;5092952;28;19924;-77
2022/04/15 02:10:38;;;;;;;;;;;8.90;99.90;;;;;;5092409;28;19924;-76
2022/04/15 02:13:05;;;;;;;;;;;8.90;99.90;;;;;;5092727;28;20334;-77
2022/04/15 02:15:32;;;;;;;;;;;8.90;99.90;;;;;;5092513;28;19977;-77
2022/04/15 02:18:01;;;;;;;;;;;8.90;99.90;;;;;;5092602;28;19936;-77
2022/04/15 02:20:28;;;;;;;;;;;8.80;99.90;;;;;;5092237;28;20463;-77
2022/04/15 02:22:55;;;;;;;;;;;8.80;99.90;;;;;;5091815;28;20410;-77
2022/04/15 02:25:22;;;;;;;;;;;8.70;99.90;;;;;;5091926;28;19978;-77
2022/04/15 02:27:50;;;;;;;;;;;8.70;99.90;;;;;;5092292;28;19924;-77
2022/04/15 02:30:16;;;;;;;;;;;8.60;99.90;;;;;;5092026;28;19927;-77
2022/04/15 02:32:43;;;;;;;;;;;8.50;99.90;;;;;;5092084;28;20449;-77
2022/04/15 02:35:12;;;;;;;;;;;8.50;99.90;;;;;;5091806;28;19928;-77
2022/04/15 02:37:38;;;;;;;;;;;8.50;99.90;;;;;;5092400;28;19973;-77
2022/04/15 02:40:06;;;;;;;;;;;8.50;99.90;;;;;;5109081;28;20018;-77
2022/04/15 02:42:33;;;;;;;;;;;8.50;99.90;;;;;;5091839;28;20391;-76
2022/04/15 02:45:00;;;;;;;;;;;8.50;99.90;;;;;;5107989;28;19960;-77
2022/04/15 02:47:27;;;;;;;;;;;8.40;99.90;;;;;;5091959;28;19954;-76
2022/04/15 02:49:53;;;;;;;;;;;8.40;99.90;;;;;;5091670;28;19928;-76
2022/04/15 02:52:22;;;;;;;;;;;8.40;99.90;;;;;;5091988;28;19928;-77
2022/04/15 02:54:49;;;;;;;;;;;8.30;99.90;;;;;;5091663;28;19924;-76
2022/04/15 02:57:15;;;;;;;;;;;8.30;99.90;;;;;;5091887;28;19931;-77
2022/04/15 02:59:42;;;;;;;;;;;8.30;99.90;;;;;;5091725;28;20436;-76
2022/04/15 03:02:09;;;;;;;;;;;8.30;99.90;;;;;;5091491;28;19996;-76
2022/04/15 03:04:35;;;;;;;;;;;8.30;99.90;;;;;;5091659;28;19989;-77
2022/04/15 03:07:02;;;;;;;;;;;8.20;99.90;;;;;;5091381;28;19924;-77
2022/04/15 03:09:30;;;;;;;;;;;8.20;99.90;;;;;;5091272;28;19974;-77
2022/04/15 03:11:57;;;;;;;;;;;8.10;99.90;;;;;;5091662;28;19970;-77
2022/04/15 03:14:24;;;;;;;;;;;8.10;99.90;;;;;;5091191;28;20267;-76
2022/04/15 03:16:51;;;;;;;;;;;8.10;99.90;;;;;;5091641;28;20361;-77
2022/04/15 03:19:18;;;;;;;;;;;8.00;99.90;;;;;;5091294;28;19924;-76
2022/04/15 03:21:44;;;;;;;;;;;8.00;99.90;;;;;;5091548;28;19924;-76
2022/04/15 03:24:11;;;;;;;;;;;8.00;99.90;;;;;;5090858;28;19928;-76
2022/04/15 03:26:39;;;;;;;;;;;8.00;99.90;;;;;;5091615;28;20019;-77
2022/04/15 03:29:06;;;;;;;;;;;7.90;99.90;;;;;;5091228;28;19976;-77
2022/04/15 03:31:33;;;;;;;;;;;7.90;99.90;;;;;;5091039;28;19924;-77
2022/04/15 03:33:59;;;;;;;;;;;8.00;99.90;;;;;;5091170;28;19928;-77
2022/04/15 03:36:26;;;;;;;;;;;8.00;99.90;;;;;;5090927;28;19924;-77
2022/04/15 03:38:53;;;;;;;;;;;8.00;99.90;;;;;;5108199;28;19924;-76
2022/04/15 03:41:20;;;;;;;;;;;8.00;99.90;;;;;;5091255;28;19977;-77
2022/04/15 03:43:49;;;;;;;;;;;7.90;99.90;;;;;;5090823;28;19991;-77
2022/04/15 03:46:15;;;;;;;;;;;7.90;99.90;;;;;;5091141;28;19924;-77
2022/04/15 03:48:42;;;;;;;;;;;7.90;99.90;;;;;;5090899;28;20284;-76
2022/04/15 03:51:11;;;;;;;;;;;7.90;99.90;;;;;;5091020;28;19924;-76
2022/04/15 03:53:38;;;;;;;;;;;7.80;99.90;;;;;;5091048;28;19924;-77
2022/04/15 03:56:06;;;;;;;;;;;7.80;99.90;;;;;;5090919;28;19985;-77
2022/04/15 03:58:33;;;;;;;;;;;7.70;99.90;;;;;;5091081;28;19924;-77
2022/04/15 04:01:01;;;;;;;;;;;7.70;99.90;;;;;;5090780;28;20326;-77
2022/04/15 04:03:28;;;;;;;;;;;7.70;99.90;;;;;;5091050;28;20461;-77
2022/04/15 04:05:54;;;;;;;;;;;7.70;99.90;;;;;;5091025;28;19924;-78
2022/04/15 04:08:21;;;;;;;;;;;7.70;99.90;;;;;;5108016;28;19928;-77
2022/04/15 04:10:48;;;;;;;;;;;7.70;99.90;;;;;;5091100;28;19970;-77
2022/04/15 04:13:15;;;;;;;;;;;7.70;99.90;;;;;;5090709;28;19932;-77
2022/04/15 04:15:41;;;;;;;;;;;7.60;99.90;;;;;;5090831;28;19931;-77
2022/04/15 04:18:13;;;;;;;;;;;7.60;99.90;;;;;;5091152;28;20437;-78
2022/04/15 04:20:39;;;;;;;;;;;7.50;99.90;;;;;;5107709;28;19924;-78
2022/04/15 04:23:06;;;;;;;;;;;7.50;99.90;;;;;;5090977;28;19924;-78
2022/04/15 04:25:33;;;;;;;;;;;7.50;99.90;;;;;;5090358;28;20399;-78
2022/04/15 04:28:00;;;;;;;;;;;7.50;99.90;;;;;;5090634;28;19994;-78
2022/04/15 04:30:27;;;;;;;;;;;7.40;99.90;;;;;;5090488;28;19932;-77
2022/04/15 04:32:53;;;;;;;;;;;7.40;99.90;;;;;;5090455;28;20311;-77
2022/04/15 04:35:22;;;;;;;;;;;7.40;99.90;;;;;;5090444;28;19957;-77
2022/04/15 04:37:49;;;;;;;;;;;7.50;99.90;;;;;;5090838;28;19928;-77
2022/04/15 04:40:16;;;;;;;;;;;7.50;99.90;;;;;;5090636;28;19924;-77
2022/04/15 04:42:43;;;;;;;;;;;7.50;99.90;;;;;;5090766;28;19924;-78
2022/04/15 04:45:11;;;;;;;;;;;7.40;99.90;;;;;;5107127;28;19928;-77
2022/04/15 04:47:39;;;;;;;;;;;7.50;99.90;;;;;;5090864;28;19986;-78
2022/04/15 04:50:08;;;;;;;;;;;7.50;99.90;;;;;;5090399;28;19924;-77
2022/04/15 04:52:36;;;;;;;;;;;7.40;99.90;;;;;;5090710;28;20414;-77
2022/04/15 04:55:03;;;;;;;;;;;7.40;99.90;;;;;;5090102;28;20021;-78
2022/04/15 04:57:30;;;;;;;;;;;7.40;99.90;;;;;;5090673;28;19924;-77
2022/04/15 04:59:57;;;;;;;;;;;7.40;99.90;;;;;;5090189;28;19924;-77
2022/04/15 05:02:24;;;;;;;;;;;7.50;99.90;;;;;;5093068;28;19954;-78
2022/04/15 05:04:51;;;;;;;;;;;7.50;99.90;;;;;;5110797;28;19989;-78
2022/04/15 05:07:17;;;;;;;;;;;7.50;99.90;;;;;;5110451;28;20448;-77
2022/04/15 05:09:46;;;;;;;;;;;7.60;99.90;;;;;;5114587;28;19969;-78
2022/04/15 05:12:12;;;;;;;;;;;7.60;99.90;;;;;;5117391;28;19928;-79
2022/04/15 05:14:39;;;;;;;;;;;7.60;99.90;;;;;;5126565;27;19924;-79
2022/04/15 05:17:06;;;;;;;;;;;7.70;99.90;;;;;;5126173;27;19924;-78
2022/04/15 05:19:33;;;;;;;;;;;7.60;99.90;;;;;;5131486;27;19973;-79
2022/04/15 05:22:00;;;;;;;;;;;7.60;99.90;;;;;;5117200;28;19930;-78
2022/04/15 05:24:27;;;;;;;;;;;7.70;99.90;;;;;;5117191;28;20387;-79
2022/04/15 05:26:55;;;;;;;;;;;7.70;99.90;;;;;;5117692;28;19969;-79
2022/04/15 05:29:22;;;;;;;;;;;7.70;99.90;;;;;;5116610;28;19923;-78
2022/04/15 05:31:49;;;;;;;;;;;7.80;99.90;;;;;;5117164;28;19934;-78
2022/04/15 05:34:15;;;;;;;;;;;7.80;99.90;;;;;;5117301;28;19931;-78
2022/04/15 05:36:42;;;;;;;;;;;7.80;99.90;;;;;;5111731;28;20439;-78
2022/04/15 05:39:09;;;;;;;;;;;7.80;99.90;;;;;;5096901;28;19924;-78
2022/04/15 05:41:36;;;;;;;;;;;7.90;99.90;;;;;;5095811;28;20456;-78
2022/04/15 05:44:04;;;;;;;;;;;7.90;99.90;;;;;;5096816;28;20382;-78
2022/04/15 05:46:31;;;;;;;;;;;8.00;99.90;;;;;;5096647;28;19937;-78
2022/04/15 05:48:58;;;;;;;;;;;8.00;99.90;;;;;;5094487;28;19969;-77
2022/04/15 05:51:25;;;;;;;;;;;8.10;99.90;;;;;;5092590;28;19924;-78
2022/04/15 05:53:52;;;;;;;;;;;8.10;99.90;;;;;;5092740;28;19971;-79
2022/04/15 05:56:18;;;;;;;;;;;8.20;99.90;;;;;;5094873;28;19924;-79
2022/04/15 05:58:45;;;;;;;;;;;8.30;99.90;;;;;;5095158;28;19924;-78
2022/04/15 06:01:13;;;;;;;;;;;8.40;99.90;;;;;;5099993;27;19928;-78
2022/04/15 06:03:40;;;;;;;;;;;8.50;99.90;;;;;;5101477;28;20296;-78
2022/04/15 06:06:07;;;;;;;;;;;8.60;99.90;;;;;;5105075;27;19924;-78
2022/04/15 06:08:34;;;;;;;;;;;8.70;99.90;;;;;;5105103;27;19932;-79
2022/04/15 06:11:01;;;;;;;;;;;8.80;99.90;;;;;;5116592;27;19924;-79
2022/04/15 06:13:27;;;;;;;;;;;8.80;99.90;;;;;;5115561;28;19969;-78
2022/04/15 06:15:56;;;;;;;;;;;8.90;99.90;;;;;;5112652;27;19924;-79
2022/04/15 06:18:24;;;;;;;;;;;9.00;99.90;;;;;;5121744;27;19930;-79
2022/04/15 06:20:51;;;;;;;;;;;9.00;99.90;;;;;;5126710;27;19995;-78
2022/04/15 06:23:19;;;;;;;;;;;9.10;99.90;;;;;;5134713;27;19924;-78
2022/04/15 06:25:46;;;;;;;;;;;9.20;99.90;;;;;;5129067;27;19927;-79
2022/04/15 06:28:13;;;;;;;;;;;9.30;99.90;;;;;;5103514;27;19924;-77
2022/04/15 06:30:40;;;;;;;;;;;9.40;99.90;;;;;;5110772;27;19924;-78
2022/04/15 06:33:08;;;;;;;;;;;9.50;99.90;;;;;;5116948;27;20352;-78
2022/04/15 06:35:37;;;;;;;;;;;9.50;99.90;;;;;;5119018;28;19924;-78
2022/04/15 06:38:04;;;;;;;;;;;9.60;99.90;;;;;;5120539;28;19924;-79
2022/04/15 06:40:31;;;;;;;;;;;9.60;99.90;;;;;;5119030;28;19948;-79
2022/04/15 06:42:58;;;;;;;;;;;9.80;99.90;;;;;;5115746;28;20328;-77
2022/04/15 06:45:24;;;;;;;;;;;10.20;99.90;;;;;;5126930;27;19980;-79
2022/04/15 06:47:51;;;;;;;;;;;10.50;99.90;;;;;;5137174;27;19924;-79
2022/04/15 06:50:19;;;;;;;;;;;10.70;99.90;;;;;;5136381;27;19928;-79
2022/04/15 06:52:47;;;;;;;;;;;10.80;99.90;;;;;;5137007;27;19923;-79
2022/04/15 06:55:14;;;;;;;;;;;10.80;99.90;;;;;;5136677;27;19934;-79
2022/04/15 06:57:40;;;;;;;;;;;10.60;99.90;;;;;;5139152;27;19976;-79
2022/04/15 07:00:08;;;;;;;;;;;10.50;99.90;;;;;;5138469;27;19931;-79
2022/04/15 07:02:35;;;;;;;;;;;10.40;99.90;;;;;;5136791;27;20014;-79
2022/04/15 07:05:02;;;;;;;;;;;10.40;99.90;;;;;;5137601;27;19930;-79
2022/04/15 07:07:29;;;;;;;;;;;10.50;99.90;;;;;;5137085;27;19935;-79
2022/04/15 07:09:57;;;;;;;;;;;10.50;99.90;;;;;;5136672;27;20026;-79
2022/04/15 07:12:24;;;;;;;;;;;10.70;99.90;;;;;;5117815;27;19927;-79
2022/04/15 07:14:51;;;;;;;;;;;10.70;99.90;;;;;;5121456;27;19976;-79
2022/04/15 07:17:17;;;;;;;;;;;10.80;99.90;;;;;;5128576;27;19931;-79
2022/04/15 07:19:44;;;;;;;;;;;10.90;99.90;;;;;;5125246;27;19927;-79
2022/04/15 07:22:11;;;;;;;;;;;11.10;99.90;;;;;;5131368;27;19924;-79
2022/04/15 07:24:38;;;;;;;;;;;11.10;99.90;;;;;;5136573;27;19928;-79
2022/04/15 07:27:06;;;;;;;;;;;11.20;99.90;;;;;;5137021;27;19928;-79
2022/04/15 07:29:33;;;;;;;;;;;11.20;99.90;;;;;;5135498;27;19923;-78
2022/04/15 07:31:59;;;;;;;;;;;11.20;99.90;;;;;;5135358;27;19931;-78
2022/04/15 07:34:26;;;;;;;;;;;11.30;99.90;;;;;;5136198;27;19923;-79
2022/04/15 07:36:57;;;;;;;;;;;11.20;99.90;;;;;;5135089;27;19923;-79
2022/04/15 07:39:24;;;;;;;;;;;11.20;99.90;;;;;;5124916;27;20303;-79
2022/04/15 07:41:51;;;;;;;;;;;11.20;99.90;;;;;;5117200;27;20446;-78
2022/04/15 07:44:20;;;;;;;;;;;11.20;99.90;;;;;;5120076;27;19977;-80
2022/04/15 07:46:47;;;;;;;;;;;11.20;99.90;;;;;;5117760;28;19931;-78
2022/04/15 07:49:13;;;;;;;;;;;11.10;99.90;;;;;;5114511;28;20444;-79
2022/04/15 07:51:40;;;;;;;;;;;11.10;99.90;;;;;;5114914;28;19945;-78
2022/04/15 07:54:07;;;;;;;;;;;11.10;99.90;;;;;;5114752;28;19923;-79
2022/04/15 07:56:34;;;;;;;;;;;11.10;99.90;;;;;;5114554;28;20366;-78
2022/04/15 07:59:01;;;;;;;;;;;11.10;99.90;;;;;;5113915;28;19969;-78
2022/04/15 08:01:30;;;;;;;;;;;11.00;99.90;;;;;;5114487;28;19924;-78
2022/04/15 08:03:57;;;;;;;;;;;10.90;99.90;;;;;;5114160;28;20446;-78
2022/04/15 08:06:25;;;;;;;;;;;10.80;99.90;;;;;;5114304;28;19984;-79
2022/04/15 08:08:54;;;;;;;;;;;10.70;99.90;;;;;;5114652;28;19924;-78
2022/04/15 08:11:20;;;;;;;;;;;10.80;99.90;;;;;;5105022;28;20015;-78
2022/04/15 08:13:48;;;;;;;;;;;10.80;99.90;;;;;;5094515;28;19924;-78
2022/04/15 08:16:14;;;;;;;;;;;10.70;99.90;;;;;;5095579;28;19973;-79
2022/04/15 08:18:43;;;;;;;;;;;10.60;99.90;;;;;;5096412;28;19924;-79
2022/04/15 08:21:10;;;;;;;;;;;10.50;99.90;;;;;;5095314;28;19925;-79
2022/04/15 08:23:37;;;;;;;;;;;10.40;99.90;;;;;;5095099;28;19931;-79
2022/04/15 08:26:04;;;;;;;;;;;10.40;99.90;;;;;;5095672;28;19924;-79
2022/04/15 08:28:30;;;;;;;;;;;10.40;99.90;;;;;;5107547;28;19927;-79
2022/04/15 08:30:57;;;;;;;;;;;10.30;99.90;;;;;;5120090;28;20318;-79
2022/04/15 08:33:24;;;;;;;;;;;10.40;99.90;;;;;;5113215;28;19969;-78
2022/04/15 08:35:52;;;;;;;;;;;10.40;99.90;;;;;;5113950;28;20014;-78
2022/04/15 08:38:19;;;;;;;;;;;10.40;99.90;;;;;;5113904;28;19928;-78
2022/04/15 08:40:49;;;;;;;;;;;10.40;99.90;;;;;;5114615;28;20022;-79
2022/04/15 08:43:16;;;;;;;;;;;10.50;99.90;;;;;;5114972;28;19927;-79
2022/04/15 08:45:43;;;;;;;;;;;10.50;99.90;;;;;;5117913;28;19928;-79
2022/04/15 08:48:10;;;;;;;;;;;10.40;99.90;;;;;;5118461;28;19924;-79
2022/04/15 08:50:37;;;;;;;;;;;10.40;99.90;;;;;;5117585;28;20330;-79
2022/04/15 08:53:05;;;;;;;;;;;10.30;99.90;;;;;;5118350;28;19928;-79
2022/04/15 08:55:32;;;;;;;;;;;10.30;99.90;;;;;;5118593;28;19972;-79
2022/04/15 08:57:59;;;;;;;;;;;10.30;99.90;;;;;;5118674;28;19923;-79
2022/04/15 09:00:26;;;;;;;;;;;10.30;99.90;;;;;;5118458;28;20104;-79
2022/04/15 09:02:53;;;;;;;;;;;10.30;99.90;;;;;;5117215;28;19928;-80
2022/04/15 09:05:21;;;;;;;;;;;10.30;99.90;;;;;;5118584;28;19924;-79
2022/04/15 09:07:48;;;;;;;;;;;10.30;99.90;;;;;;5118791;28;19931;-79
2022/04/15 09:10:18;;;;;;;;;;;10.30;99.90;;;;;;5116809;28;19931;-79
2022/04/15 09:12:46;;;;;;;;;;;10.20;99.90;;;;;;5098795;28;19924;-79
2022/04/15 09:15:13;;;;;;;;;;;10.20;99.90;;;;;;5100343;28;19977;-79
2022/04/15 09:17:41;;;;;;;;;;;10.20;99.90;;;;;;5097990;28;19925;-79
2022/04/15 09:20:09;;;;;;;;;;;10.20;99.90;;;;;;5097468;28;19928;-80
2022/04/15 09:22:36;;;;;;;;;;;10.30;99.90;;;;;;5096787;28;20409;-79
2022/04/15 09:25:03;;;;;;;;;;;10.20;99.90;;;;;;5096646;28;20461;-77
2022/04/15 09:27:32;;;;;;;;;;;10.30;99.90;;;;;;5095507;28;19924;-79
2022/04/15 09:30:00;;;;;;;;;;;10.30;99.90;;;;;;5096760;28;19936;-80
2022/04/15 09:32:28;;;;;;;;;;;10.20;99.90;;;;;;5097239;28;19989;-77
2022/04/15 09:34:55;;;;;;;;;;;10.10;99.90;;;;;;5095960;28;19924;-79
2022/04/15 09:37:22;;;;;;;;;;;10.10;99.90;;;;;;5127521;27;19924;-79
2022/04/15 09:40:06;;;;;;;;;;;10.10;99.90;;;;;;5116985;28;19927;-79
2022/04/15 09:42:35;;;;;;;;;;;10.00;99.90;;;;;;5106345;27;20034;-77
2022/04/15 09:45:12;;;;;;;;;;;10.10;99.90;;;;;;5107422;27;19923;-78
2022/04/15 09:47:39;;;;;;;;;;;10.30;99.90;;;;;;5121868;27;19924;-78
2022/04/15 09:50:07;;;;;;;;;;;10.50;99.90;;;;;;5117592;27;19930;-78
2022/04/15 09:52:33;;;;;;;;;;;10.60;99.90;;;;;;5115833;28;19968;-79
2022/04/15 09:55:01;;;;;;;;;;;10.70;99.90;;;;;;5116062;28;19924;-79
2022/04/15 09:57:33;;;;;;;;;;;10.90;99.90;;;;;;5115779;28;19939;-79
2022/04/15 10:00:04;;;;;;;;;;;11.00;99.90;;;;;;5116220;28;19923;-80
2022/04/15 10:02:39;;;;;;;;;;;11.30;99.90;;;;;;5117495;28;19923;-79
2022/04/15 10:05:06;;;;;;;;;;;11.50;99.90;;;;;;5114414;28;19972;-78
2022/04/15 10:07:34;;;;;;;;;;;11.70;99.90;;;;;;5115200;28;19956;-78
2022/04/15 10:10:02;;;;;;;;;;;11.80;99.90;;;;;;5114010;28;19992;-79
2022/04/15 10:12:30;;;;;;;;;;;12.00;99.90;;;;;;5094787;28;19981;-78
2022/04/15 10:14:57;;;;;;;;;;;12.30;99.90;;;;;;5093900;28;20399;-79
2022/04/15 10:17:25;;;;;;;;;;;12.50;99.90;;;;;;5094323;28;19924;-78
2022/04/15 10:19:53;;;;;;;;;;;12.80;99.90;;;;;;5096855;28;19924;-79
2022/04/15 10:22:20;;;;;;;;;;;13.10;99.90;;;;;;5096881;28;19928;-79
2022/04/15 10:24:47;;;;;;;;;;;13.20;99.90;;;;;;5097565;28;20009;-79
2022/04/15 10:27:14;;;;;;;;;;;13.50;99.90;;;;;;5097749;28;19924;-80
2022/04/15 10:29:41;;;;;;;;;;;13.90;99.90;;;;;;5106242;27;19973;-79
2022/04/15 10:32:13;;;;;;;;;;;14.00;99.90;;;;;;5114219;27;20383;-77
2022/04/15 10:34:46;;;;;;;;;;;14.10;99.90;;;;;;5120834;27;19962;-79
2022/04/15 10:37:13;;;;;;;;;;;14.10;99.90;;;;;;5116819;28;19959;-76
2022/04/15 10:39:47;;;;;;;;;;;14.10;99.90;;;;;;5116589;28;20336;-82
2022/04/15 10:42:18;;;;;;;;;;;14.10;99.90;;;;;;5115812;28;19924;-79
2022/04/15 10:44:44;;;;;;;;;;;14.00;99.90;;;;;;5114547;28;19969;-79
2022/04/15 10:47:13;;;;;;;;;;;13.90;99.90;;;;;;5108902;27;20395;-78
2022/04/15 10:49:40;;;;;;;;;;;13.80;99.90;;;;;;5096366;27;19978;-78
2022/04/15 10:52:21;;;;;;;;;;;14.00;99.90;;;;;;5103484;27;20069;-79
2022/04/15 10:54:48;;;;;;;;;;;14.00;99.90;;;;;;5108331;27;19943;-78
2022/04/15 10:57:17;;;;;;;;;;;14.00;99.90;;;;;;5100294;27;20464;-79
2022/04/15 11:02:38;;;;;;;;;;;14.10;99.90;;;;;;5110264;27;20324;-79
2022/04/15 11:05:05;;;;;;;;;;;13.90;99.90;;;;;;5112979;27;19924;-79
2022/04/15 11:07:41;;;;;;;;;;;14.00;99.90;;;;;;5123296;27;19972;-79
2022/04/15 11:10:16;;;;;;;;;;;14.30;99.90;;;;;;5119394;27;19927;-78
2022/04/15 11:12:44;;;;;;;;;;;14.60;99.90;;;;;;5127382;27;19976;-77
2022/04/15 11:15:12;;;;;;;;;;;14.90;99.90;;;;;;5132409;27;19931;-78
2022/04/15 11:17:39;;;;;;;;;;;15.00;99.90;;;;;;5115367;27;19924;-78
2022/04/15 11:20:07;;;;;;;;;;;15.10;99.90;;;;;;5115724;27;19923;-78
2022/04/15 11:22:39;;;;;;;;;;;15.30;99.90;;;;;;5110060;27;19927;-78
2022/04/15 11:25:07;;;;;;;;;;;15.40;99.90;;;;;;5115221;27;19930;-78
2022/04/15 11:27:35;;;;;;;;;;;15.70;99.90;;;;;;5116091;27;19923;-78
2022/04/15 11:30:04;;;;;;;;;;;15.80;99.90;;;;;;5108719;28;19924;-78
2022/04/15 11:32:32;;;;;;;;;;;16.10;99.90;;;;;;5101332;27;19928;-78
2022/04/15 11:35:03;;;;;;;;;;;16.30;99.90;;;;;;5098210;27;19928;-78
2022/04/15 11:37:30;;;;;;;;;;;16.60;99.90;;;;;;5093692;27;20280;-78
2022/04/15 11:39:59;;;;;;;;;;;16.80;99.90;;;;;;5099504;27;19977;-78
2022/04/15 11:42:27;;;;;;;;;;;16.80;99.90;;;;;;5104839;27;19923;-78
2022/04/15 11:44:54;;;;;;;;;;;16.80;99.90;;;;;;5106961;27;19924;-78
2022/04/15 11:47:24;;;;;;;;;;;17.10;99.90;;;;;;5120720;27;19946;-78
2022/04/15 11:49:51;;;;;;;;;;;19.00;99.90;;;;;;5119745;27;19924;-80
2022/04/15 11:52:22;;;;;;;;;;;19.10;99.90;;;;;;5131553;27;19928;-80
2022/04/15 11:54:49;;;;;;;;;;;20.70;99.90;;;;;;5136794;27;19948;-79
2022/04/15 11:57:17;;;;;;;;;;;21.00;99.90;;;;;;5137333;27;19924;-79
2022/04/15 11:59:44;;;;;;;;;;;21.60;99.90;;;;;;5134961;27;19931;-80
2022/04/15 12:02:12;;;;;;;;;;;21.20;99.90;;;;;;5131037;27;20329;-78
2022/04/15 12:04:48;;;;;;;;;;;22.10;99.90;;;;;;5103719;27;20412;-79
2022/04/15 12:07:15;;;;;;;;;;;22.10;99.90;;;;;;5102656;28;19939;-80
2022/04/15 12:09:44;;;;;;;;;;;21.70;99.90;;;;;;5118429;28;20367;-81
2022/04/15 12:12:11;;;;;;;;;;;21.00;99.90;;;;;;5125415;28;19923;-80
2022/04/15 12:14:40;;;;;;;;;;;20.50;99.90;;;;;;5119311;28;20343;-79
2022/04/15 12:17:08;;;;;;;;;;;19.80;99.90;;;;;;5118897;28;19924;-79
2022/04/15 12:19:35;;;;;;;;;;;20.60;99.90;;;;;;5113548;27;19957;-80
2022/04/15 12:22:02;;;;;;;;;;;21.10;99.90;;;;;;5121033;27;19924;-79
2022/04/15 12:24:30;;;;;;;;;;;21.60;99.90;;;;;;5119126;27;19928;-79
2022/04/15 12:27:00;;;;;;;;;;;21.50;99.90;;;;;;5120457;27;19924;-79
2022/04/15 12:32:29;;;;;;;;;;;22.30;99.90;;;;;;5038185;28;19943;-79
2022/04/15 12:35:10;;;;;;;;;;;21.20;99.90;;;;;;5039263;28;19964;-79
2022/04/15 12:37:42;;;;;;;;;;;21.00;99.90;;;;;;5081502;27;19932;-79
2022/04/15 12:40:10;;;;;;;;;;;21.10;99.90;;;;;;5114245;27;19989;-79
2022/04/15 12:42:37;;;;;;;;;;;21.90;99.90;;;;;;5116027;27;19923;-79
2022/04/15 12:45:09;;;;;;;;;;;22.00;99.90;;;;;;5121313;27;20363;-79
2022/04/15 12:47:37;;;;;;;;;;;22.20;99.90;;;;;;5131907;27;20412;-79
2022/04/15 12:50:19;;;;;;;;;;;22.00;99.90;;;;;;5139672;27;19929;-78
2022/04/15 12:52:46;;;;;;;;;;;21.20;99.90;;;;;;5133012;27;19924;-78
2022/04/15 12:55:12;;;;;;;;;;;21.40;99.90;;;;;;5129980;27;19959;-80
2022/04/15 12:57:41;;;;;;;;;;;22.30;99.90;;;;;;5131858;27;20455;-80
2022/04/15 13:00:08;;;;;;;;;;;22.50;99.90;;;;;;5137862;27;19965;-79
2022/04/15 13:02:35;;;;;;;;;;;22.40;99.90;;;;;;5118614;27;19932;-78
2022/04/15 13:05:05;;;;;;;;;;;22.50;99.90;;;;;;5126721;27;19923;-77
2022/04/15 13:07:31;;;;;;;;;;;23.10;99.90;;;;;;5118811;27;19928;-78
2022/04/15 13:09:58;;;;;;;;;;;23.70;99.90;;;;;;5115232;27;19932;-77
2022/04/15 13:12:25;;;;;;;;;;;24.40;99.90;;;;;;5124595;27;19928;-78
2022/04/15 13:14:53;;;;;;;;;;;24.90;99.90;;;;;;5136325;27;19963;-78
2022/04/15 13:17:20;;;;;;;;;;;24.30;99.90;;;;;;5137268;27;19931;-77
2022/04/15 13:19:47;;;;;;;;;;;23.20;99.90;;;;;;5126098;27;19928;-78
2022/04/15 13:22:16;;;;;;;;;;;22.90;99.90;;;;;;5094638;28;19924;-78
2022/04/15 13:24:43;;;;;;;;;;;23.10;99.90;;;;;;5093310;28;19924;-77
2022/04/15 13:27:09;;;;;;;;;;;23.40;99.90;;;;;;5093670;28;19927;-77
2022/04/15 13:29:37;;;;;;;;;;;23.30;99.90;;;;;;5093430;28;19928;-78
2022/04/15 13:32:04;;;;;;;;;;;23.40;99.90;;;;;;5093489;28;19924;-78
2022/04/15 13:34:33;;;;;;;;;;;23.20;99.90;;;;;;5093472;28;20349;-78
2022/04/15 13:37:00;;;;;;;;;;;23.80;99.90;;;;;;5094062;28;19928;-79
2022/04/15 13:39:28;;;;;;;;;;;24.20;99.90;;;;;;5093418;28;19936;-78
2022/04/15 13:41:56;;;;;;;;;;;24.30;99.90;;;;;;5109105;27;19935;-78
2022/04/15 13:44:23;;;;;;;;;;;24.70;99.90;;;;;;5118884;27;19924;-78
2022/04/15 13:46:49;;;;;;;;;;;25.00;99.90;;;;;;5115729;28;19931;-78
2022/04/15 13:49:16;;;;;;;;;;;24.60;99.90;;;;;;5114622;28;19924;-78
2022/04/15 13:51:43;;;;;;;;;;;24.30;99.90;;;;;;5112991;28;19924;-77
2022/04/15 13:56:55;;;;;;;;;;;24.70;99.90;;;;;;5124779;27;20072;-77
2022/04/15 13:59:22;;;;;;;;;;;24.20;99.90;;;;;;5135282;27;19923;-77
2022/04/15 14:01:49;;;;;;;;;;;24.00;99.90;;;;;;5134179;27;19983;-77
2022/04/15 14:04:16;;;;;;;;;;;23.80;99.90;;;;;;5133945;27;19924;-78
2022/04/15 14:06:44;;;;;;;;;;;23.90;99.90;;;;;;5134440;27;19923;-79
2022/04/15 14:09:11;;;;;;;;;;;23.90;99.90;;;;;;5132882;27;19924;-78
2022/04/15 14:11:39;;;;;;;;;;;24.10;99.90;;;;;;5121574;27;19924;-79
2022/04/15 14:14:08;;;;;;;;;;;24.40;99.90;;;;;;5114115;28;19923;-79
2022/04/15 14:16:35;;;;;;;;;;;24.00;99.90;;;;;;5113855;28;19924;-78
2022/04/15 14:19:04;;;;;;;;;;;24.00;99.90;;;;;;5114841;28;19931;-79
2022/04/15 14:21:32;;;;;;;;;;;23.90;99.90;;;;;;5114329;28;20030;-77
2022/04/15 14:23:59;;;;;;;;;;;24.10;99.90;;;;;;5113308;28;19924;-77
2022/04/15 14:26:26;;;;;;;;;;;24.20;99.90;;;;;;5113908;28;19924;-78
2022/04/15 14:28:53;;;;;;;;;;;23.80;99.90;;;;;;5113316;28;19923;-78
2022/04/15 14:31:21;;;;;;;;;;;24.00;99.90;;;;;;5113447;28;19971;-78
2022/04/15 14:33:48;;;;;;;;;;;24.40;99.90;;;;;;5112884;28;19924;-77